createdAt,value
2022-10-15T00:01:45.509Z,0.80
2022-10-15T00:04:13.588Z,1.23
2022-10-15T00:06:41.621Z,0.60
2022-10-15T00:09:11.072Z,0.93
2022-10-15T00:11:40.093Z,0.87
2022-10-15T00:14:08.088Z,0.70
2022-10-15T00:16:36.605Z,0.60
2022-10-15T00:19:05.367Z,0.83
2022-10-15T00:21:33.558Z,1.03
2022-10-15T00:24:01.565Z,0.60
2022-10-15T00:26:31.517Z,0.60
2022-10-15T00:29:02.787Z,0.70
2022-10-15T00:31:33.161Z,0.80
2022-10-15T00:34:03.578Z,0.60
2022-10-15T00:36:34.226Z,0.80
2022-10-15T00:39:03.197Z,0.40
2022-10-15T00:41:35.782Z,0.70
2022-10-15T00:44:43.193Z,0.70
2022-10-15T00:47:19.590Z,0.63
2022-10-15T00:49:54.954Z,0.80
2022-10-15T00:52:28.180Z,0.50
2022-10-15T00:55:02.140Z,0.80
2022-10-15T00:57:34.081Z,0.67
2022-10-15T01:00:09.559Z,0.60
2022-10-15T01:02:40.142Z,0.60
2022-10-15T01:05:10.982Z,0.57
2022-10-15T01:07:41.619Z,0.67
2022-10-15T01:10:12.026Z,0.60
2022-10-15T01:12:55.258Z,0.60
2022-10-15T01:15:35.129Z,0.83
2022-10-15T01:18:10.990Z,0.60
2022-10-15T01:20:59.259Z,0.93
2022-10-15T01:24:14.506Z,0.70
2022-10-15T01:27:10.962Z,0.50
2022-10-15T01:30:19.303Z,0.77
2022-10-15T01:33:26.978Z,0.60
2022-10-15T01:36:04.098Z,0.50
2022-10-15T01:38:47.645Z,0.50
2022-10-15T01:41:23.310Z,0.57
2022-10-15T01:44:01.737Z,0.33
2022-10-15T01:47:04.905Z,0.70
2022-10-15T01:49:40.054Z,0.70
2022-10-15T01:52:13.746Z,0.50
2022-10-15T01:54:43.249Z,0.53
2022-10-15T01:57:13.779Z,0.50
2022-10-15T01:59:43.723Z,0.50
2022-10-15T02:02:11.777Z,0.60
2022-10-15T02:04:42.477Z,0.53
2022-10-15T02:07:20.462Z,0.70
2022-10-15T02:09:58.906Z,0.70
2022-10-15T02:12:42.167Z,0.70
2022-10-15T02:15:18.741Z,0.60
2022-10-15T02:18:01.025Z,0.57
2022-10-15T02:20:41.436Z,0.57
2022-10-15T02:23:14.304Z,0.60
2022-10-15T02:25:44.394Z,0.70
2022-10-15T02:28:14.726Z,0.50
2022-10-15T02:30:44.827Z,0.60
2022-10-15T02:33:14.066Z,0.47
2022-10-15T02:35:45.618Z,0.47
2022-10-15T02:38:17.579Z,0.70
2022-10-15T02:40:47.138Z,0.50
2022-10-15T02:43:20.160Z,0.60
2022-10-15T02:45:48.871Z,1.23
2022-10-15T02:48:18.218Z,0.77
2022-10-15T02:50:49.692Z,0.40
2022-10-15T02:53:17.709Z,0.90
2022-10-15T02:55:47.021Z,0.60
2022-10-15T02:58:15.326Z,0.43
2022-10-15T03:00:45.224Z,0.40
2022-10-15T03:03:14.226Z,0.37
2022-10-15T03:05:44.188Z,0.63
2022-10-15T03:08:13.923Z,0.40
2022-10-15T03:10:42.107Z,0.50
2022-10-15T03:13:10.518Z,0.40
2022-10-15T03:15:46.278Z,0.37
2022-10-15T03:18:15.838Z,0.40
2022-10-15T03:20:44.266Z,0.43
2022-10-15T03:23:15.813Z,0.20
2022-10-15T03:25:44.547Z,0.27
2022-10-15T03:28:19.779Z,0.50
2022-10-15T03:30:48.368Z,0.60
2022-10-15T03:33:17.362Z,0.50
2022-10-15T03:35:46.965Z,0.47
2022-10-15T03:38:16.549Z,0.33
2022-10-15T03:40:46.243Z,0.83
2022-10-15T03:43:26.226Z,0.50
2022-10-15T03:45:54.790Z,0.40
2022-10-15T03:48:25.125Z,0.30
2022-10-15T03:50:53.161Z,0.40
2022-10-15T03:53:22.947Z,0.30
2022-10-15T03:55:51.683Z,0.93
2022-10-15T03:58:19.762Z,0.30
2022-10-15T04:00:55.287Z,0.40
2022-10-15T04:03:24.004Z,0.30
2022-10-15T04:05:54.135Z,0.40
2022-10-15T04:08:26.802Z,0.50
2022-10-15T04:10:55.415Z,0.30
2022-10-15T04:13:23.603Z,0.30
2022-10-15T04:15:51.673Z,0.33
2022-10-15T04:18:21.670Z,0.43
2022-10-15T04:20:57.638Z,0.30
2022-10-15T04:23:27.315Z,0.20
2022-10-15T04:26:13.869Z,0.30
2022-10-15T04:28:42.495Z,0.27
2022-10-15T04:31:10.820Z,0.20
2022-10-15T04:33:38.851Z,0.37
2022-10-15T04:36:11.080Z,0.30
2022-10-15T04:38:50.262Z,0.30
2022-10-15T04:41:28.175Z,0.20
2022-10-15T04:44:01.558Z,0.10
2022-10-15T04:46:31.608Z,0.30
2022-10-15T04:49:04.089Z,0.20
2022-10-15T04:51:32.624Z,0.20
2022-10-15T04:54:11.106Z,0.40
2022-10-15T04:56:49.109Z,0.30
2022-10-15T04:59:17.151Z,0.30
2022-10-15T05:02:05.343Z,0.10
2022-10-15T05:04:34.655Z,0.20
2022-10-15T05:07:02.936Z,0.10
2022-10-15T05:09:36.780Z,0.30
2022-10-15T05:12:05.533Z,0.97
2022-10-15T05:14:35.571Z,1.40
2022-10-15T05:17:08.050Z,1.10
2022-10-15T05:19:40.978Z,0.83
2022-10-15T05:22:15.985Z,0.73
2022-10-15T05:24:51.586Z,0.50
2022-10-15T05:27:38.974Z,0.30
2022-10-15T05:30:08.798Z,0.50
2022-10-15T05:32:43.425Z,0.30
2022-10-15T05:35:13.692Z,0.50
2022-10-15T05:37:53.855Z,0.40
2022-10-15T05:40:26.320Z,0.40
2022-10-15T05:43:21.091Z,0.60
2022-10-15T05:45:50.582Z,0.30
2022-10-15T05:48:19.461Z,0.40
2022-10-15T05:50:48.449Z,0.40
2022-10-15T05:53:23.527Z,0.30
2022-10-15T05:55:58.865Z,0.50
2022-10-15T05:58:33.463Z,0.67
2022-10-15T06:01:10.950Z,0.80
2022-10-15T06:03:42.197Z,1.60
2022-10-15T06:06:19.302Z,2.10
2022-10-15T06:08:47.729Z,2.17
2022-10-15T06:11:18.311Z,1.63
2022-10-15T06:13:48.777Z,1.37
2022-10-15T06:16:21.153Z,1.70
2022-10-15T06:18:53.928Z,2.00
2022-10-15T06:21:22.494Z,1.90
2022-10-15T06:23:50.696Z,2.07
2022-10-15T06:26:20.039Z,2.10
2022-10-15T06:28:49.333Z,1.70
2022-10-15T06:31:17.472Z,1.83
2022-10-15T06:33:45.462Z,1.87
2022-10-15T06:36:14.662Z,1.60
2022-10-15T06:38:44.168Z,1.07
2022-10-15T06:41:12.538Z,0.83
2022-10-15T06:43:42.039Z,0.70
2022-10-15T06:46:11.805Z,0.80
2022-10-15T06:48:39.806Z,0.70
2022-10-15T06:51:09.412Z,0.70
2022-10-15T06:53:40.455Z,0.50
2022-10-15T06:56:08.899Z,0.60
2022-10-15T06:58:42.163Z,0.70
2022-10-15T07:01:11.670Z,0.60
2022-10-15T07:03:39.998Z,0.60
2022-10-15T07:06:10.588Z,0.50
2022-10-15T07:08:38.731Z,0.40
2022-10-15T07:11:09.242Z,0.40
2022-10-15T07:13:39.935Z,0.40
2022-10-15T07:16:13.645Z,0.57
2022-10-15T07:18:41.851Z,0.40
2022-10-15T07:21:13.017Z,0.83
2022-10-15T07:23:41.115Z,0.40
2022-10-15T07:26:09.373Z,1.50
2022-10-15T07:28:37.536Z,2.50
2022-10-15T07:31:08.420Z,1.70
2022-10-15T07:33:38.002Z,2.77
2022-10-15T07:36:09.539Z,2.00
2022-10-15T07:38:37.934Z,1.07
2022-10-15T07:41:12.066Z,0.70
2022-10-15T07:43:43.852Z,0.50
2022-10-15T07:46:14.466Z,0.67
2022-10-15T07:48:43.855Z,0.50
2022-10-15T07:51:12.808Z,0.60
2022-10-15T07:53:41.159Z,0.70
2022-10-15T07:56:13.113Z,0.60
2022-10-15T07:58:42.939Z,0.50
2022-10-15T08:01:12.027Z,0.60
2022-10-15T08:03:40.055Z,0.63
2022-10-15T08:06:09.670Z,0.53
2022-10-15T08:08:39.239Z,0.50
2022-10-15T08:11:08.650Z,0.40
2022-10-15T08:13:38.870Z,0.67
2022-10-15T08:16:07.458Z,0.77
2022-10-15T08:18:36.159Z,0.70
2022-10-15T08:21:04.801Z,0.60
2022-10-15T08:23:35.033Z,0.60
2022-10-15T08:26:05.133Z,0.70
2022-10-15T08:28:35.570Z,0.53
2022-10-15T08:31:05.956Z,0.70
2022-10-15T08:33:35.239Z,0.90
2022-10-15T08:36:05.316Z,0.70
2022-10-15T08:38:35.578Z,0.70
2022-10-15T08:41:12.438Z,1.00
2022-10-15T08:43:43.697Z,0.60
2022-10-15T08:46:21.501Z,0.73
2022-10-15T08:48:54.356Z,0.60
2022-10-15T08:51:26.017Z,0.90
2022-10-15T08:54:00.624Z,0.70
2022-10-15T08:56:34.674Z,0.77
2022-10-15T08:59:18.355Z,0.70
2022-10-15T09:01:53.602Z,0.40
2022-10-15T09:04:31.602Z,0.53
2022-10-15T09:07:14.707Z,0.40
2022-10-15T09:09:49.997Z,0.63
2022-10-15T09:12:39.683Z,0.50
2022-10-15T09:15:15.014Z,0.70
2022-10-15T09:17:45.828Z,0.37
2022-10-15T09:20:19.915Z,0.50
2022-10-15T09:22:55.196Z,0.47
2022-10-15T09:25:31.933Z,0.60
2022-10-15T09:28:10.728Z,0.30
2022-10-15T09:30:47.752Z,0.50
2022-10-15T09:33:26.014Z,0.43
2022-10-15T09:36:01.564Z,0.40
2022-10-15T09:38:40.151Z,0.60
2022-10-15T09:41:21.008Z,0.40
2022-10-15T09:43:52.689Z,0.70
2022-10-15T09:46:20.927Z,0.50
2022-10-15T09:48:53.572Z,0.53
2022-10-15T09:51:29.690Z,0.80
2022-10-15T09:54:09.279Z,0.77
2022-10-15T09:56:46.786Z,0.70
2022-10-15T09:59:18.902Z,0.63
2022-10-15T10:02:01.706Z,1.00
2022-10-15T10:04:31.847Z,0.80
2022-10-15T10:07:04.741Z,0.90
2022-10-15T10:09:37.254Z,0.93
2022-10-15T10:12:17.496Z,0.87
2022-10-15T10:14:55.435Z,0.80
2022-10-15T10:17:26.151Z,0.90
2022-10-15T10:20:20.290Z,1.00
2022-10-15T10:22:51.673Z,0.77
2022-10-15T10:25:38.933Z,0.67
2022-10-15T10:28:26.100Z,1.20
2022-10-15T10:31:03.840Z,1.13
2022-10-15T10:33:38.215Z,0.60
2022-10-15T10:38:42.482Z,0.80
2022-10-15T10:41:12.761Z,0.50
2022-10-15T10:43:54.615Z,0.80
2022-10-15T10:46:24.404Z,0.90
2022-10-15T10:48:54.654Z,0.30
2022-10-15T10:51:26.618Z,0.37
2022-10-15T10:54:02.054Z,0.40
2022-10-15T10:56:36.581Z,0.60
2022-10-15T10:59:16.287Z,0.60
2022-10-15T11:01:44.418Z,0.50
2022-10-15T11:04:18.556Z,0.73
2022-10-15T11:07:02.037Z,0.57
2022-10-15T11:09:51.135Z,0.53
2022-10-15T11:12:40.887Z,0.97
2022-10-15T11:15:28.690Z,0.60
2022-10-15T11:18:21.239Z,0.60
2022-10-15T11:21:05.860Z,0.60
2022-10-15T11:23:55.576Z,0.53
2022-10-15T11:26:58.744Z,0.80
2022-10-15T11:29:53.378Z,0.70
2022-10-15T11:33:01.703Z,0.90
2022-10-15T11:35:52.994Z,0.50
2022-10-15T11:38:35.493Z,0.60
2022-10-15T11:41:27.284Z,0.53
2022-10-15T11:44:27.236Z,0.60
2022-10-15T11:47:10.150Z,0.60
2022-10-15T11:49:53.787Z,0.70
2022-10-15T11:52:42.569Z,0.50
2022-10-15T11:55:19.373Z,1.13
2022-10-15T11:57:54.655Z,0.60
2022-10-15T12:00:34.402Z,0.80
2022-10-15T12:03:10.769Z,0.70
2022-10-15T12:05:47.611Z,0.80
2022-10-15T12:08:16.909Z,0.83
2022-10-15T12:11:17.115Z,0.70
2022-10-15T12:13:54.014Z,0.77
2022-10-15T12:16:31.187Z,0.63
2022-10-15T12:19:14.790Z,0.70
2022-10-15T12:22:06.386Z,0.80
2022-10-15T12:25:00.830Z,0.70
2022-10-15T12:27:35.379Z,0.80
2022-10-15T12:30:26.209Z,0.30
2022-10-15T12:32:55.076Z,0.77
2022-10-15T12:35:36.480Z,0.60
2022-10-15T12:38:26.278Z,0.50
2022-10-15T12:41:05.984Z,0.50
2022-10-15T12:43:39.200Z,0.50
2022-10-15T12:46:11.328Z,0.47
2022-10-15T12:48:43.303Z,0.80
2022-10-15T12:51:32.937Z,0.60
2022-10-15T12:54:02.522Z,0.80
2022-10-15T12:56:41.716Z,0.70
2022-10-15T12:59:32.836Z,0.83
2022-10-15T13:02:03.638Z,0.67
2022-10-15T13:04:42.935Z,0.53
2022-10-15T13:07:15.381Z,0.80
2022-10-15T13:09:44.855Z,0.50
2022-10-15T13:12:26.511Z,0.90
2022-10-15T13:15:03.657Z,0.80
2022-10-15T13:17:32.089Z,0.70
2022-10-15T13:20:05.357Z,0.90
2022-10-15T13:22:36.200Z,1.60
2022-10-15T13:25:16.821Z,1.20
2022-10-15T13:27:44.867Z,0.90
2022-10-15T13:30:17.411Z,1.00
2022-10-15T13:32:50.295Z,1.03
2022-10-15T13:35:21.877Z,1.20
2022-10-15T13:37:50.875Z,1.20
2022-10-15T13:40:24.067Z,0.97
2022-10-15T13:43:02.033Z,0.90
2022-10-15T13:45:31.252Z,1.20
2022-10-15T13:47:59.954Z,1.00
2022-10-15T13:50:30.567Z,1.07
2022-10-15T13:53:02.139Z,1.27
2022-10-15T13:55:36.286Z,1.00
2022-10-15T13:58:18.919Z,0.90
2022-10-15T14:00:55.279Z,0.80
2022-10-15T14:03:26.385Z,0.90
2022-10-15T14:05:57.023Z,1.00
2022-10-15T14:08:29.382Z,0.70
2022-10-15T14:11:00.770Z,0.97
2022-10-15T14:13:30.075Z,0.97
2022-10-15T14:18:46.430Z,1.07
2022-10-15T14:21:20.476Z,0.97
2022-10-15T14:23:50.322Z,1.50
2022-10-15T14:26:25.570Z,1.23
2022-10-15T14:28:56.471Z,0.80
2022-10-15T14:31:39.125Z,0.80
2022-10-15T14:34:29.516Z,0.70
2022-10-15T14:36:58.406Z,1.00
2022-10-15T14:39:34.452Z,1.03
2022-10-15T14:42:05.994Z,0.77
2022-10-15T14:44:46.593Z,0.70
2022-10-15T14:47:22.782Z,1.13
2022-10-15T14:49:55.275Z,1.00
2022-10-15T14:52:24.455Z,0.90
2022-10-15T14:55:07.175Z,1.00
2022-10-15T14:57:41.710Z,0.80
2022-10-15T15:00:26.781Z,1.00
2022-10-15T15:02:57.559Z,1.00
2022-10-15T15:05:28.108Z,1.03
2022-10-15T15:07:57.996Z,0.90
2022-10-15T15:10:28.451Z,1.17
2022-10-15T15:12:58.439Z,0.87
2022-10-15T15:15:27.439Z,0.90
2022-10-15T15:17:55.795Z,1.00
2022-10-15T15:20:24.286Z,1.17
2022-10-15T15:22:55.375Z,0.70
2022-10-15T15:25:29.749Z,0.83
2022-10-15T15:27:59.140Z,0.80
2022-10-15T15:30:29.874Z,0.80
2022-10-15T15:33:00.447Z,0.57
2022-10-15T15:35:36.488Z,0.53
2022-10-15T15:38:07.281Z,0.50
2022-10-15T15:40:35.547Z,0.70
2022-10-15T15:43:05.034Z,0.80
2022-10-15T15:45:33.218Z,0.80
2022-10-15T15:48:03.551Z,0.90
2022-10-15T15:50:32.063Z,0.73
2022-10-15T15:53:00.473Z,0.70
2022-10-15T15:55:29.359Z,0.70
2022-10-15T15:57:57.520Z,0.70
2022-10-15T16:00:27.186Z,0.60
2022-10-15T16:02:57.992Z,0.70
2022-10-15T16:05:26.684Z,0.77
2022-10-15T16:07:57.007Z,0.40
2022-10-15T16:10:25.349Z,0.67
2022-10-15T16:12:53.396Z,0.60
2022-10-15T16:15:21.446Z,0.50
2022-10-15T16:17:50.885Z,0.70
2022-10-15T16:20:19.119Z,0.60
2022-10-15T16:22:50.828Z,0.60
2022-10-15T16:25:19.491Z,1.20
2022-10-15T16:27:48.774Z,0.73
2022-10-15T16:30:17.534Z,0.60
2022-10-15T16:32:45.670Z,0.70
2022-10-15T16:35:15.062Z,0.70
2022-10-15T16:37:43.078Z,0.60
2022-10-15T16:40:12.819Z,0.80
2022-10-15T16:42:41.530Z,0.90
2022-10-15T16:45:11.597Z,0.70
2022-10-15T16:47:39.655Z,0.60
2022-10-15T16:50:09.716Z,0.60
2022-10-15T16:52:39.144Z,0.70
2022-10-15T16:55:08.219Z,1.10
2022-10-15T16:57:36.265Z,0.50
2022-10-15T17:00:05.263Z,0.53
2022-10-15T17:02:33.518Z,0.50
2022-10-15T17:05:01.588Z,3.30
2022-10-15T17:07:29.743Z,2.10
2022-10-15T17:09:59.154Z,0.70
2022-10-15T17:12:27.644Z,0.77
2022-10-15T17:14:55.953Z,0.90
2022-10-15T17:17:24.063Z,1.00
2022-10-15T17:19:52.252Z,0.73
2022-10-15T17:22:20.986Z,0.60
2022-10-15T17:24:50.527Z,0.90
2022-10-15T17:27:20.166Z,1.00
2022-10-15T17:29:48.251Z,0.70
2022-10-15T17:32:16.327Z,0.90
2022-10-15T17:34:44.470Z,0.90
2022-10-15T17:37:14.094Z,0.77
2022-10-15T17:39:42.329Z,0.93
2022-10-15T17:42:10.345Z,0.90
2022-10-15T17:44:39.691Z,1.00
2022-10-15T17:47:07.727Z,1.07
2022-10-15T17:49:35.860Z,0.90
2022-10-15T17:52:04.022Z,0.70
2022-10-15T17:54:32.249Z,1.00
2022-10-15T17:57:00.266Z,0.97
2022-10-15T17:59:28.886Z,0.80
2022-10-15T18:02:00.704Z,0.80
2022-10-15T18:04:31.082Z,0.90
2022-10-15T18:06:59.285Z,1.03
2022-10-15T18:09:28.454Z,1.10
2022-10-15T18:12:00.973Z,0.97
2022-10-15T18:14:30.341Z,1.37
2022-10-15T18:17:00.144Z,1.20
2022-10-15T18:19:28.451Z,1.20
2022-10-15T18:21:57.034Z,1.10
2022-10-15T18:24:25.901Z,1.30
2022-10-15T18:26:54.435Z,1.00
2022-10-15T18:29:25.103Z,1.03
2022-10-15T18:31:57.358Z,1.37
2022-10-15T18:34:30.312Z,1.20
2022-10-15T18:36:58.384Z,1.10
2022-10-15T18:39:27.259Z,1.10
2022-10-15T18:41:55.388Z,1.10
2022-10-15T18:44:24.342Z,1.10
2022-10-15T18:46:52.752Z,1.07
2022-10-15T18:49:22.184Z,1.10
2022-10-15T18:51:52.941Z,1.10
2022-10-15T18:54:21.238Z,1.03
2022-10-15T18:56:49.324Z,1.10
2022-10-15T18:59:22.414Z,0.90
2022-10-15T19:01:53.589Z,1.20
2022-10-15T19:04:24.175Z,1.20
2022-10-15T19:06:56.978Z,1.00
2022-10-15T19:09:27.461Z,0.90
2022-10-15T19:11:57.899Z,1.00
2022-10-15T19:14:29.057Z,1.07
2022-10-15T19:16:58.198Z,0.83
2022-10-15T19:19:28.946Z,1.07
2022-10-15T19:21:59.885Z,1.10
2022-10-15T19:24:28.301Z,1.00
2022-10-15T19:26:56.398Z,0.73
2022-10-15T19:29:24.776Z,0.90
2022-10-15T19:31:54.560Z,0.90
2022-10-15T19:34:23.203Z,1.03
2022-10-15T19:36:51.683Z,0.80
2022-10-15T19:39:23.284Z,0.93
2022-10-15T19:41:53.002Z,1.00
2022-10-15T19:44:25.407Z,0.90
2022-10-15T19:46:54.699Z,0.77
2022-10-15T19:49:22.924Z,0.80
2022-10-15T19:51:51.446Z,0.60
2022-10-15T19:54:20.960Z,0.70
2022-10-15T19:56:49.101Z,0.97
2022-10-15T19:59:18.139Z,0.67
2022-10-15T20:01:46.252Z,0.77
2022-10-15T20:04:14.371Z,0.93
2022-10-15T20:06:42.450Z,0.93
2022-10-15T20:09:10.528Z,0.80
2022-10-15T20:11:39.927Z,0.73
2022-10-15T20:14:08.221Z,0.80
2022-10-15T20:16:36.329Z,0.77
2022-10-15T20:19:05.411Z,0.73
2022-10-15T20:21:34.079Z,1.17
2022-10-15T20:24:04.174Z,0.90
2022-10-15T20:26:32.833Z,1.00
2022-10-15T20:29:02.814Z,0.97
2022-10-15T20:31:33.033Z,1.20
2022-10-15T20:34:02.185Z,1.00
2022-10-15T20:36:30.553Z,1.10
2022-10-15T20:39:00.615Z,1.20
2022-10-15T20:41:29.641Z,1.10
2022-10-15T20:43:57.842Z,0.77
2022-10-15T20:46:32.397Z,1.07
2022-10-15T20:49:08.574Z,0.90
2022-10-15T20:51:40.186Z,0.80
2022-10-15T20:54:09.068Z,0.80
2022-10-15T20:56:37.290Z,0.90
2022-10-15T20:59:06.080Z,0.83
2022-10-15T21:01:38.515Z,0.80
2022-10-15T21:04:07.350Z,1.07
2022-10-15T21:06:35.387Z,0.73
2022-10-15T21:09:04.114Z,0.90
2022-10-15T21:11:32.294Z,1.00
2022-10-15T21:14:01.501Z,0.90
2022-10-15T21:16:29.591Z,0.90
2022-10-15T21:18:59.027Z,0.90
2022-10-15T21:21:28.478Z,0.93
2022-10-15T21:23:56.929Z,1.10
2022-10-15T21:26:25.244Z,0.80
2022-10-15T21:28:56.268Z,1.00
2022-10-15T21:31:24.592Z,1.23
2022-10-15T21:33:53.349Z,0.73
2022-10-15T21:36:26.280Z,0.70
2022-10-15T21:38:55.449Z,0.70
2022-10-15T21:41:24.608Z,1.10
2022-10-15T21:43:53.251Z,1.10
2022-10-15T21:46:21.339Z,0.90
2022-10-15T21:48:50.035Z,0.90
2022-10-15T21:51:23.686Z,1.10
2022-10-15T21:53:52.493Z,0.93
2022-10-15T21:56:20.971Z,0.80
2022-10-15T21:58:49.630Z,1.03
2022-10-15T22:01:21.715Z,0.80
2022-10-15T22:03:51.444Z,0.80
2022-10-15T22:06:22.333Z,1.00
2022-10-15T22:08:50.636Z,1.10
2022-10-15T22:11:21.849Z,0.80
2022-10-15T22:13:53.868Z,0.80
2022-10-15T22:16:22.837Z,0.80
2022-10-15T22:18:51.838Z,0.83
2022-10-15T22:21:24.063Z,1.07
2022-10-15T22:23:54.524Z,0.90
2022-10-15T22:26:25.781Z,0.83
2022-10-15T22:28:55.034Z,0.93
2022-10-15T22:31:23.645Z,1.00
2022-10-15T22:33:51.919Z,0.80
2022-10-15T22:36:24.946Z,0.80
2022-10-15T22:41:30.145Z,0.80
2022-10-15T22:43:58.497Z,0.87
2022-10-15T22:46:27.173Z,0.87
2022-10-15T22:48:55.459Z,1.63
2022-10-15T22:51:25.253Z,1.30
2022-10-15T22:53:56.372Z,1.20
2022-10-15T22:56:25.289Z,1.00
2022-10-15T22:58:53.433Z,0.73
2022-10-15T23:01:23.953Z,1.03
2022-10-15T23:03:55.481Z,0.90
2022-10-15T23:06:26.102Z,0.70
2022-10-15T23:08:55.607Z,0.80
2022-10-15T23:11:26.675Z,0.90
2022-10-15T23:13:57.325Z,0.90
2022-10-15T23:16:28.958Z,0.80
2022-10-15T23:18:59.117Z,1.10
2022-10-15T23:21:33.742Z,0.67
2022-10-15T23:24:02.777Z,1.00
2022-10-15T23:26:31.363Z,1.10
2022-10-15T23:29:02.203Z,0.97
2022-10-15T23:31:33.558Z,0.90
2022-10-15T23:34:03.634Z,0.73
2022-10-15T23:36:34.400Z,0.87
2022-10-15T23:39:05.980Z,1.00
2022-10-15T23:41:34.938Z,0.90
2022-10-15T23:44:03.084Z,0.90
2022-10-15T23:46:31.237Z,1.13
2022-10-15T23:48:59.233Z,1.20
2022-10-15T23:51:30.844Z,1.27
2022-10-15T23:54:01.706Z,1.20
2022-10-15T23:56:31.254Z,1.00
2022-10-15T23:59:01.571Z,1.30
